Time;durP1;ratioP1;P1;durP2;ratioP2;P2;SDS_P1;SDS_P2;PMS_P1;PMS_P2;Temp;Humidity;BMP_temperature;BMP_pressure;BME280_temperature;BME280_humidity;BME280_pressure;Samples;Min_cycle;Max_cycle;Signal;HPM_P1;HPM_P2
2022/07/30 00:00:52;;;;;;;4.15;1.80;;;;;;;;;;5027986;28;20041;-76
2022/07/30 00:03:18;;;;;;;3.30;1.80;;;;;;;;;;5027104;28;20046;-76
2022/07/30 00:05:43;;;;;;;3.10;1.80;;;;;;;;;;5027827;28;20029;-76
2022/07/30 00:08:08;;;;;;;4.50;1.75;;;;;;;;;;5027742;28;20029;-76
2022/07/30 00:10:34;;;;;;;2.63;1.52;;;;;;;;;;5027685;28;20021;-76
2022/07/30 00:12:59;;;;;;;4.45;1.90;;;;;;;;;;5027442;28;20021;-76
2022/07/30 00:15:25;;;;;;;4.20;2.00;;;;;;;;;;5027537;28;20049;-75
2022/07/30 00:17:50;;;;;;;4.25;1.88;;;;;;;;;;5027776;28;20049;-75
2022/07/30 00:20:16;;;;;;;3.42;1.75;;;;;;;;;;5027749;28;20029;-75
2022/07/30 00:22:41;;;;;;;5.82;1.88;;;;;;;;;;5027411;28;20025;-75
2022/07/30 00:25:07;;;;;;;4.50;1.80;;;;;;;;;;5027799;28;20030;-75
2022/07/30 00:27:34;;;;;;;5.85;2.00;;;;;;;;;;5027567;28;20041;-75
2022/07/30 00:30:00;;;;;;;4.15;1.70;;;;;;;;;;5027516;28;20076;-75
2022/07/30 00:32:25;;;;;;;7.60;1.77;;;;;;;;;;5027165;28;20519;-75
2022/07/30 00:34:51;;;;;;;4.85;1.90;;;;;;;;;;5027527;28;20082;-75
2022/07/30 00:37:16;;;;;;;3.67;1.75;;;;;;;;;;5027466;28;20030;-76
2022/07/30 00:39:42;;;;;;;3.65;1.80;;;;;;;;;;5027562;28;20025;-76
2022/07/30 00:42:07;;;;;;;4.07;1.80;;;;;;;;;;5027480;28;20034;-76
2022/07/30 00:44:33;;;;;;;3.83;1.83;;;;;;;;;;5027267;28;20034;-76
2022/07/30 00:46:58;;;;;;;6.10;1.70;;;;;;;;;;5027262;28;20021;-76
2022/07/30 00:49:24;;;;;;;4.68;1.92;;;;;;;;;;5027192;28;20066;-76
2022/07/30 00:51:50;;;;;;;6.43;1.90;;;;;;;;;;5025815;28;20527;-76
2022/07/30 00:54:16;;;;;;;4.65;1.70;;;;;;;;;;5027140;28;20055;-76
2022/07/30 00:56:41;;;;;;;4.03;1.80;;;;;;;;;;5027257;28;20562;-76
2022/07/30 00:59:07;;;;;;;4.60;1.90;;;;;;;;;;5027171;28;20022;-76
2022/07/30 01:01:33;;;;;;;4.18;1.85;;;;;;;;;;5027046;28;20030;-76
2022/07/30 01:03:59;;;;;;;3.20;2.00;;;;;;;;;;5026476;28;20080;-75
2022/07/30 01:06:24;;;;;;;7.22;2.15;;;;;;;;;;5026815;28;20057;-76
2022/07/30 01:08:50;;;;;;;3.20;1.60;;;;;;;;;;5027074;28;20036;-76
2022/07/30 01:11:15;;;;;;;3.83;1.80;;;;;;;;;;5027052;28;20061;-75
2022/07/30 01:13:41;;;;;;;5.50;1.90;;;;;;;;;;5026963;28;20373;-76
2022/07/30 01:16:07;;;;;;;3.00;1.60;;;;;;;;;;5028382;28;20117;-77
2022/07/30 01:21:22;;;;;;;4.18;1.80;;;;;;;;;;5030474;28;20182;-75
2022/07/30 01:23:49;;;;;;;;;;;;;;;;;;5030657;28;20036;-75
2022/07/30 01:26:18;;;;;;;2.67;1.80;;;;;;;;;;5030444;28;19909;-75
2022/07/30 01:28:50;;;;;;;6.22;2.00;;;;;;;;;;5030658;28;20053;-76
2022/07/30 01:31:18;;;;;;;6.95;2.17;;;;;;;;;;5030247;28;20025;-76
2022/07/30 01:33:46;;;;;;;2.80;1.67;;;;;;;;;;5030114;28;20030;-75
2022/07/30 01:36:15;;;;;;;6.57;1.80;;;;;;;;;;5029922;28;20030;-76
2022/07/30 01:38:43;;;;;;;4.70;1.77;;;;;;;;;;5030063;28;20501;-76
2022/07/30 01:41:10;;;;;;;6.00;1.90;;;;;;;;;;5030085;28;20069;-76
2022/07/30 01:43:37;;;;;;;4.97;1.80;;;;;;;;;;5029737;28;20061;-76
2022/07/30 01:46:04;;;;;;;3.28;1.70;;;;;;;;;;5030164;28;20037;-77
2022/07/30 01:48:34;;;;;;;3.55;1.80;;;;;;;;;;5030228;28;20021;-75
2022/07/30 01:51:06;;;;;;;3.58;1.77;;;;;;;;;;5029839;28;20029;-76
2022/07/30 01:53:34;;;;;;;3.63;1.70;;;;;;;;;;5029844;28;20090;-76
2022/07/30 01:56:01;;;;;;;5.85;1.90;;;;;;;;;;5029790;28;20034;-75
2022/07/30 01:58:30;;;;;;;6.95;1.85;;;;;;;;;;5029699;28;20029;-76
2022/07/30 02:00:59;;;;;;;6.45;1.77;;;;;;;;;;5029881;28;20029;-75
2022/07/30 02:03:26;;;;;;;4.50;1.95;;;;;;;;;;5029528;28;20041;-76
2022/07/30 02:05:57;;;;;;;4.90;2.00;;;;;;;;;;5029868;28;20054;-76
2022/07/30 02:08:44;;;;;;;6.22;2.13;;;;;;;;;;5028249;28;20034;-75
2022/07/30 02:11:13;;;;;;;5.05;1.80;;;;;;;;;;5029451;28;20053;-76
2022/07/30 02:13:51;;;;;;;3.38;1.63;;;;;;;;;;5029477;28;20032;-76
2022/07/30 02:16:25;;;;;;;4.60;1.85;;;;;;;;;;5029389;28;20022;-76
2022/07/30 02:19:05;;;;;;;5.03;1.88;;;;;;;;;;5029495;28;20104;-75
2022/07/30 02:21:34;;;;;;;6.15;1.73;;;;;;;;;;5029684;28;20086;-76
2022/07/30 02:24:04;;;;;;;3.75;1.63;;;;;;;;;;5029222;28;20033;-76
2022/07/30 02:26:31;;;;;;;4.13;1.90;;;;;;;;;;5029011;28;20118;-75
2022/07/30 02:29:00;;;;;;;4.50;1.63;;;;;;;;;;5029285;28;20108;-77
2022/07/30 02:31:28;;;;;;;3.03;1.73;;;;;;;;;;5029168;28;20022;-75
2022/07/30 02:33:57;;;;;;;8.68;2.00;;;;;;;;;;5027797;28;20029;-75
2022/07/30 02:36:25;;;;;;;4.38;1.80;;;;;;;;;;5029159;28;20484;-76
2022/07/30 02:38:51;;;;;;;3.78;1.92;;;;;;;;;;5029292;28;20018;-76
2022/07/30 02:41:20;;;;;;;5.18;1.85;;;;;;;;;;5028036;28;20400;-75
2022/07/30 02:43:47;;;;;;;3.67;1.73;;;;;;;;;;5029030;28;20150;-76
2022/07/30 02:46:16;;;;;;;5.25;1.80;;;;;;;;;;5029027;28;20026;-76
2022/07/30 02:48:45;;;;;;;5.45;1.70;;;;;;;;;;5029138;28;20540;-76
2022/07/30 02:51:14;;;;;;;3.92;1.67;;;;;;;;;;5028828;28;20594;-75
2022/07/30 02:53:42;;;;;;;3.70;1.63;;;;;;;;;;5028944;28;20026;-75
2022/07/30 02:56:09;;;;;;;2.97;1.60;;;;;;;;;;5029066;28;20045;-75
2022/07/30 02:58:36;;;;;;;2.90;1.70;;;;;;;;;;5028975;28;20025;-75
2022/07/30 03:01:03;;;;;;;5.47;1.90;;;;;;;;;;5027622;28;20052;-75
2022/07/30 03:03:30;;;;;;;3.97;1.88;;;;;;;;;;5028329;28;20056;-76
2022/07/30 03:05:57;;;;;;;5.80;2.03;;;;;;;;;;5028704;28;20033;-75
2022/07/30 03:08:23;;;;;;;4.38;1.65;;;;;;;;;;5028577;28;20650;-75
2022/07/30 03:10:50;;;;;;;5.68;1.90;;;;;;;;;;5027438;28;20036;-75
2022/07/30 03:13:16;;;;;;;5.60;1.88;;;;;;;;;;5028637;28;20029;-76
2022/07/30 03:15:47;;;;;;;3.45;1.67;;;;;;;;;;5028569;28;20034;-75
2022/07/30 03:18:15;;;;;;;3.25;1.60;;;;;;;;;;5028642;28;20029;-75
2022/07/30 03:20:44;;;;;;;4.18;1.70;;;;;;;;;;5028520;28;20055;-75
2022/07/30 03:23:11;;;;;;;3.05;1.90;;;;;;;;;;5028292;28;20037;-75
2022/07/30 03:25:38;;;;;;;3.80;1.83;;;;;;;;;;5028557;28;20426;-75
2022/07/30 03:28:05;;;;;;;6.05;1.60;;;;;;;;;;5028544;28;20017;-75
2022/07/30 03:30:33;;;;;;;4.10;1.70;;;;;;;;;;5028560;28;20112;-77
2022/07/30 03:32:59;;;;;;;6.18;1.70;;;;;;;;;;5028204;28;20683;-75
2022/07/30 03:35:25;;;;;;;3.85;1.88;;;;;;;;;;5028470;28;20171;-76
2022/07/30 03:37:52;;;;;;;2.80;1.60;;;;;;;;;;5027442;28;20048;-75
2022/07/30 03:40:18;;;;;;;4.18;1.75;;;;;;;;;;5028031;28;20157;-75
2022/07/30 03:42:45;;;;;;;5.55;1.80;;;;;;;;;;5026881;28;20030;-76
2022/07/30 03:45:14;;;;;;;4.95;1.60;;;;;;;;;;5028119;28;20564;-75
2022/07/30 03:47:41;;;;;;;5.30;1.70;;;;;;;;;;5028252;28;20026;-76
2022/07/30 03:50:08;;;;;;;4.30;1.70;;;;;;;;;;5028205;28;20021;-75
2022/07/30 03:52:37;;;;;;;5.45;1.67;;;;;;;;;;5028023;28;20079;-77
2022/07/30 03:55:03;;;;;;;4.68;1.52;;;;;;;;;;5027709;28;20033;-76
2022/07/30 03:57:29;;;;;;;4.75;1.52;;;;;;;;;;5026622;28;20033;-76
2022/07/30 03:59:54;;;;;;;3.75;1.38;;;;;;;;;;5028054;28;20081;-75
2022/07/30 04:02:20;;;;;;;6.07;1.60;;;;;;;;;;5027968;28;20040;-74
2022/07/30 04:04:46;;;;;;;4.03;1.30;;;;;;;;;;5027807;28;20026;-75
2022/07/30 04:07:11;;;;;;;4.60;1.60;;;;;;;;;;5027827;28;20544;-75
2022/07/30 04:09:37;;;;;;;3.92;1.30;;;;;;;;;;5027797;28;20026;-74
2022/07/30 04:12:02;;;;;;;3.65;1.33;;;;;;;;;;5027646;28;20519;-76
2022/07/30 04:14:42;;;;;;;2.85;1.35;;;;;;;;;;5027614;28;20026;-76
2022/07/30 04:17:21;;;;;;;2.10;1.20;;;;;;;;;;5027589;28;20033;-76
2022/07/30 04:19:50;;;;;;;4.38;1.10;;;;;;;;;;5027596;28;20078;-77
2022/07/30 04:22:22;;;;;;;4.68;1.10;;;;;;;;;;5027754;28;20116;-76
2022/07/30 04:24:48;;;;;;;2.38;1.00;;;;;;;;;;5027727;28;20064;-76
2022/07/30 04:27:15;;;;;;;2.70;0.98;;;;;;;;;;5026397;28;20021;-76
2022/07/30 04:29:41;;;;;;;1.90;1.00;;;;;;;;;;5027588;28;20022;-76
2022/07/30 04:32:11;;;;;;;1.52;0.82;;;;;;;;;;5027241;28;20108;-76
2022/07/30 04:34:44;;;;;;;3.65;1.10;;;;;;;;;;5027410;28;20374;-76
2022/07/30 04:37:10;;;;;;;1.55;0.90;;;;;;;;;;5027364;28;20025;-76
2022/07/30 04:39:35;;;;;;;2.60;1.00;;;;;;;;;;5027546;28;20116;-76
2022/07/30 04:42:01;;;;;;;4.60;1.10;;;;;;;;;;5027564;28;20023;-77
2022/07/30 04:44:27;;;;;;;4.70;1.17;;;;;;;;;;5027299;28;20029;-76
2022/07/30 04:46:52;;;;;;;1.75;0.85;;;;;;;;;;5027506;28;20025;-76
2022/07/30 04:49:18;;;;;;;1.77;0.98;;;;;;;;;;5026992;28;20021;-75
2022/07/30 04:51:45;;;;;;;5.40;1.10;;;;;;;;;;5027124;28;20025;-76
2022/07/30 04:54:13;;;;;;;2.80;0.95;;;;;;;;;;5027161;28;20021;-74
2022/07/30 04:56:40;;;;;;;2.38;0.90;;;;;;;;;;5027166;28;20028;-76
2022/07/30 04:59:06;;;;;;;1.88;0.90;;;;;;;;;;5027251;28;20025;-76
2022/07/30 05:01:34;;;;;;;2.67;1.00;;;;;;;;;;5027220;28;20033;-77
2022/07/30 05:04:00;;;;;;;2.92;0.90;;;;;;;;;;5026721;28;20493;-76
2022/07/30 05:06:27;;;;;;;1.33;0.90;;;;;;;;;;5026877;28;20034;-76
2022/07/30 05:08:53;;;;;;;3.42;0.93;;;;;;;;;;5026861;28;20021;-75
2022/07/30 05:11:19;;;;;;;1.55;0.90;;;;;;;;;;5025640;28;20030;-76
2022/07/30 05:13:49;;;;;;;1.42;0.98;;;;;;;;;;5026927;28;20658;-77
2022/07/30 05:16:15;;;;;;;2.28;1.00;;;;;;;;;;5026914;28;20067;-76
2022/07/30 05:18:41;;;;;;;2.83;0.95;;;;;;;;;;5026946;28;20030;-75
2022/07/30 05:21:06;;;;;;;1.13;0.80;;;;;;;;;;5025379;28;20056;-75
2022/07/30 05:23:32;;;;;;;2.55;1.02;;;;;;;;;;5026789;28;20021;-75
2022/07/30 05:25:58;;;;;;;2.00;1.00;;;;;;;;;;5026851;28;20022;-76
2022/07/30 05:28:26;;;;;;;1.63;0.80;;;;;;;;;;5026629;28;20026;-75
2022/07/30 05:30:55;;;;;;;1.60;0.90;;;;;;;;;;5026904;28;20082;-76
2022/07/30 05:33:21;;;;;;;2.20;0.90;;;;;;;;;;5026916;28;20048;-76
2022/07/30 05:35:47;;;;;;;2.38;0.98;;;;;;;;;;5026863;28;20071;-75
2022/07/30 05:38:13;;;;;;;2.38;1.00;;;;;;;;;;5026521;28;20030;-75
2022/07/30 05:40:39;;;;;;;4.68;0.95;;;;;;;;;;5026648;28;20438;-78
2022/07/30 05:43:05;;;;;;;2.72;0.80;;;;;;;;;;5026615;28;20447;-77
2022/07/30 05:45:30;;;;;;;1.95;0.90;;;;;;;;;;5026231;28;20397;-79
2022/07/30 05:47:56;;;;;;;2.45;0.80;;;;;;;;;;5026727;28;20089;-77
2022/07/30 05:50:21;;;;;;;2.22;0.80;;;;;;;;;;5026743;28;20484;-77
2022/07/30 05:52:47;;;;;;;3.53;0.70;;;;;;;;;;5026399;28;20034;-78
2022/07/30 05:55:12;;;;;;;1.77;0.80;;;;;;;;;;5026281;28;20022;-78
2022/07/30 05:57:40;;;;;;;1.52;0.70;;;;;;;;;;5026634;28;20586;-78
2022/07/30 06:00:08;;;;;;;2.40;0.88;;;;;;;;;;5026255;28;20057;-77
2022/07/30 06:02:33;;;;;;;2.30;0.90;;;;;;;;;;5028421;28;20033;-77
2022/07/30 06:04:58;;;;;;;2.08;0.82;;;;;;;;;;5029667;28;20082;-78
2022/07/30 06:07:24;;;;;;;2.22;0.90;;;;;;;;;;5029873;28;20836;-78
2022/07/30 06:09:50;;;;;;;2.70;1.08;;;;;;;;;;5029786;28;20029;-76
2022/07/30 06:12:15;;;;;;;1.50;0.90;;;;;;;;;;5029739;28;20057;-78
2022/07/30 06:14:41;;;;;;;3.53;1.10;;;;;;;;;;5029485;28;20559;-78
2022/07/30 06:17:06;;;;;;;2.55;1.20;;;;;;;;;;5029361;28;20109;-75
2022/07/30 06:19:32;;;;;;;2.08;1.20;;;;;;;;;;5029403;28;20025;-76
2022/07/30 06:21:57;;;;;;;2.58;1.10;;;;;;;;;;5029413;28;20029;-77
2022/07/30 06:24:23;;;;;;;3.10;1.13;;;;;;;;;;5029335;28;20469;-76
2022/07/30 06:26:48;;;;;;;2.30;1.00;;;;;;;;;;5029480;28;20029;-77
2022/07/30 06:29:13;;;;;;;2.67;1.08;;;;;;;;;;5029437;28;20037;-76
2022/07/30 06:31:40;;;;;;;4.30;1.00;;;;;;;;;;5029304;28;20040;-76
2022/07/30 06:34:05;;;;;;;1.65;0.93;;;;;;;;;;5029112;28;20022;-77
2022/07/30 06:36:31;;;;;;;1.75;1.00;;;;;;;;;;5029306;28;20028;-77
2022/07/30 06:38:56;;;;;;;3.15;1.10;;;;;;;;;;5029277;28;20030;-76
2022/07/30 06:41:22;;;;;;;3.30;1.30;;;;;;;;;;5029373;28;20029;-76
2022/07/30 06:43:47;;;;;;;3.28;1.10;;;;;;;;;;5028967;28;20400;-76
2022/07/30 06:46:12;;;;;;;1.98;0.90;;;;;;;;;;5029141;28;20018;-78
2022/07/30 06:48:38;;;;;;;1.73;0.95;;;;;;;;;;5029288;28;20018;-76
2022/07/30 06:51:04;;;;;;;3.38;0.80;;;;;;;;;;5028961;28;20034;-78
2022/07/30 06:53:29;;;;;;;1.77;0.88;;;;;;;;;;5028989;28;20029;-78
2022/07/30 06:55:55;;;;;;;2.03;0.73;;;;;;;;;;5029186;28;20074;-77
2022/07/30 06:58:20;;;;;;;1.77;0.90;;;;;;;;;;5029017;28;20021;-77
2022/07/30 07:00:46;;;;;;;2.20;0.80;;;;;;;;;;5028971;28;20082;-75
2022/07/30 07:03:11;;;;;;;2.58;0.80;;;;;;;;;;5028818;28;20438;-75
2022/07/30 07:05:38;;;;;;;2.53;0.98;;;;;;;;;;5029050;28;20068;-76
2022/07/30 07:08:03;;;;;;;2.97;0.80;;;;;;;;;;5028517;28;20430;-77
2022/07/30 07:10:29;;;;;;;2.75;0.90;;;;;;;;;;5028775;28;20033;-75
2022/07/30 07:12:54;;;;;;;1.65;0.77;;;;;;;;;;5028631;28;20026;-75
2022/07/30 07:15:21;;;;;;;1.40;0.70;;;;;;;;;;5027292;28;20021;-76
2022/07/30 07:17:46;;;;;;;2.35;0.80;;;;;;;;;;5028568;28;20032;-80
2022/07/30 07:20:12;;;;;;;1.15;0.70;;;;;;;;;;5028729;28;20025;-79
2022/07/30 07:22:37;;;;;;;3.85;0.80;;;;;;;;;;5028464;28;20047;-79
2022/07/30 07:25:03;;;;;;;0.75;0.63;;;;;;;;;;5028344;28;20032;-78
2022/07/30 07:27:29;;;;;;;1.60;0.90;;;;;;;;;;5028411;28;20021;-79
2022/07/30 07:29:54;;;;;;;1.52;0.85;;;;;;;;;;5028412;28;20028;-79
2022/07/30 07:32:20;;;;;;;1.15;0.70;;;;;;;;;;5028236;28;20059;-78
2022/07/30 07:34:45;;;;;;;2.13;0.80;;;;;;;;;;5028258;28;20056;-79
2022/07/30 07:37:11;;;;;;;1.00;0.90;;;;;;;;;;5028342;28;20022;-78
2022/07/30 07:39:36;;;;;;;1.92;0.82;;;;;;;;;;5028510;28;20033;-79
2022/07/30 07:42:02;;;;;;;2.38;0.80;;;;;;;;;;5028341;28;20049;-78
2022/07/30 07:44:27;;;;;;;1.40;0.82;;;;;;;;;;5028004;28;20491;-78
2022/07/30 07:46:52;;;;;;;2.65;0.90;;;;;;;;;;5026760;28;20038;-78
2022/07/30 07:49:18;;;;;;;2.03;0.95;;;;;;;;;;5028268;28;20025;-78
2022/07/30 07:51:43;;;;;;;4.57;0.90;;;;;;;;;;5026692;28;20034;-77
2022/07/30 07:54:09;;;;;;;2.67;0.93;;;;;;;;;;5028166;28;20108;-78
2022/07/30 07:56:34;;;;;;;2.03;0.90;;;;;;;;;;5027873;28;20057;-79
2022/07/30 07:59:00;;;;;;;3.17;1.00;;;;;;;;;;5027973;28;20032;-78
2022/07/30 08:01:25;;;;;;;3.20;0.82;;;;;;;;;;5027848;28;20507;-78
2022/07/30 08:03:50;;;;;;;4.45;0.88;;;;;;;;;;5027758;28;20068;-79
2022/07/30 08:06:16;;;;;;;2.67;0.80;;;;;;;;;;5027775;28;20061;-79
2022/07/30 08:08:41;;;;;;;1.67;0.70;;;;;;;;;;5027919;28;20025;-78
2022/07/30 08:11:07;;;;;;;2.85;0.90;;;;;;;;;;5027890;28;20033;-79
2022/07/30 08:13:32;;;;;;;2.20;0.95;;;;;;;;;;5027877;28;20480;-77
2022/07/30 08:15:58;;;;;;;5.03;0.90;;;;;;;;;;5026320;28;20033;-78
2022/07/30 08:18:24;;;;;;;1.70;0.75;;;;;;;;;;5027572;28;20621;-78
2022/07/30 08:20:50;;;;;;;2.75;0.82;;;;;;;;;;5027574;28;20069;-78
2022/07/30 08:23:17;;;;;;;2.20;0.88;;;;;;;;;;5026222;28;20040;-78
2022/07/30 08:25:43;;;;;;;3.40;0.80;;;;;;;;;;5026869;28;20037;-78
2022/07/30 08:28:08;;;;;;;3.83;1.50;;;;;;;;;;5027540;28;20074;-78
2022/07/30 08:30:34;;;;;;;5.28;1.80;;;;;;;;;;5027750;28;20051;-78
2022/07/30 08:32:59;;;;;;;2.67;1.20;;;;;;;;;;5027387;28;20072;-78
2022/07/30 08:35:25;;;;;;;3.67;0.90;;;;;;;;;;5027292;28;20029;-77
2022/07/30 08:37:50;;;;;;;2.28;0.95;;;;;;;;;;5027291;28;20388;-78
2022/07/30 08:40:18;;;;;;;3.72;1.02;;;;;;;;;;5027329;28;20026;-78
2022/07/30 08:42:44;;;;;;;2.50;0.90;;;;;;;;;;5027457;28;20670;-78
2022/07/30 08:45:11;;;;;;;3.58;0.93;;;;;;;;;;5027323;28;20104;-76
2022/07/30 08:47:39;;;;;;;2.08;0.90;;;;;;;;;;5027477;28;20034;-76
2022/07/30 08:50:06;;;;;;;2.03;0.90;;;;;;;;;;5027308;28;20393;-76
2022/07/30 08:52:35;;;;;;;2.22;0.77;;;;;;;;;;5027113;28;20041;-76
2022/07/30 08:55:02;;;;;;;2.20;0.90;;;;;;;;;;5026886;28;20026;-77
2022/07/30 08:57:29;;;;;;;3.22;0.90;;;;;;;;;;5026932;28;20040;-76
2022/07/30 08:59:57;;;;;;;1.52;0.80;;;;;;;;;;5027397;28;20025;-76
2022/07/30 09:02:23;;;;;;;1.55;0.80;;;;;;;;;;5027404;28;20026;-77
2022/07/30 09:04:48;;;;;;;2.70;1.00;;;;;;;;;;5027088;28;20049;-78
2022/07/30 09:07:14;;;;;;;2.42;0.90;;;;;;;;;;5026755;28;20013;-77
2022/07/30 09:09:39;;;;;;;1.75;0.90;;;;;;;;;;5026933;28;20477;-78
2022/07/30 09:12:30;;;;;;;1.90;0.77;;;;;;;;;;5026822;28;20025;-77
2022/07/30 09:15:19;;;;;;;1.75;0.73;;;;;;;;;;5026951;28;20473;-76
2022/07/30 09:17:45;;;;;;;1.38;0.70;;;;;;;;;;5029227;28;20041;-76
2022/07/30 09:20:10;;;;;;;1.42;0.70;;;;;;;;;;5026989;28;20033;-76
2022/07/30 09:22:44;;;;;;;2.22;0.73;;;;;;;;;;5026856;28;20075;-76
2022/07/30 09:25:10;;;;;;;1.88;0.88;;;;;;;;;;5026639;28;20057;-77
2022/07/30 09:27:47;;;;;;;2.33;0.88;;;;;;;;;;5026894;28;20502;-76
2022/07/30 09:30:12;;;;;;;2.08;0.73;;;;;;;;;;5026670;28;20494;-76
2022/07/30 09:33:07;;;;;;;1.77;0.80;;;;;;;;;;5026523;28;20022;-76
2022/07/30 09:35:33;;;;;;;1.65;0.77;;;;;;;;;;5025674;28;20516;-76
2022/07/30 09:37:59;;;;;;;1.70;0.90;;;;;;;;;;5028276;28;20026;-76
2022/07/30 09:40:25;;;;;;;1.42;0.80;;;;;;;;;;5030262;28;20671;-76
2022/07/30 09:43:09;;;;;;;1.35;0.80;;;;;;;;;;5029958;28;20734;-76
2022/07/30 09:45:35;;;;;;;2.70;0.70;;;;;;;;;;5029997;28;20040;-76
2022/07/30 09:48:01;;;;;;;1.38;0.80;;;;;;;;;;5030024;28;20108;-76
2022/07/30 09:50:27;;;;;;;4.38;0.80;;;;;;;;;;5029973;28;20029;-75
2022/07/30 09:52:54;;;;;;;2.08;0.80;;;;;;;;;;5029817;28;20097;-76
2022/07/30 09:55:32;;;;;;;2.65;0.90;;;;;;;;;;5029725;28;20033;-76
2022/07/30 09:58:03;;;;;;;3.22;0.90;;;;;;;;;;5029816;28;20033;-76
2022/07/30 10:00:30;;;;;;;3.88;1.02;;;;;;;;;;5029897;28;20507;-76
2022/07/30 10:02:56;;;;;;;2.03;0.93;;;;;;;;;;5029460;28;20440;-75
2022/07/30 10:05:23;;;;;;;4.30;0.90;;;;;;;;;;5029508;28;20029;-74
2022/07/30 10:07:53;;;;;;;2.90;1.00;;;;;;;;;;5029379;28;20045;-75
2022/07/30 10:10:24;;;;;;;1.65;0.82;;;;;;;;;;5029737;28;20022;-75
2022/07/30 10:12:52;;;;;;;1.77;0.80;;;;;;;;;;5028410;28;20121;-75
2022/07/30 10:15:20;;;;;;;2.72;1.08;;;;;;;;;;5029671;28;20029;-75
2022/07/30 10:17:47;;;;;;;1.83;0.95;;;;;;;;;;5029383;28;20036;-75
2022/07/30 10:20:13;;;;;;;2.08;0.80;;;;;;;;;;5028180;28;20165;-75
2022/07/30 10:22:40;;;;;;;1.63;1.00;;;;;;;;;;5029291;28;20103;-74
2022/07/30 10:25:06;;;;;;;2.15;1.02;;;;;;;;;;5029504;28;20451;-73
2022/07/30 10:27:33;;;;;;;2.88;0.95;;;;;;;;;;5029249;28;20520;-74
2022/07/30 10:29:59;;;;;;;3.60;1.00;;;;;;;;;;5029497;28;20101;-73
2022/07/30 10:32:26;;;;;;;2.03;1.00;;;;;;;;;;5028056;28;20690;-75
2022/07/30 10:34:51;;;;;;;2.60;0.90;;;;;;;;;;5029413;28;20022;-74
2022/07/30 10:37:19;;;;;;;1.92;0.90;;;;;;;;;;5029168;28;20018;-75
2022/07/30 10:39:51;;;;;;;3.03;1.00;;;;;;;;;;5029122;28;20029;-74
2022/07/30 10:43:01;;;;;;;1.77;0.88;;;;;;;;;;5029121;28;20064;-74
2022/07/30 10:45:42;;;;;;;2.15;1.20;;;;;;;;;;5029851;28;20052;-75
2022/07/30 10:48:07;;;;;;;1.38;0.98;;;;;;;;;;5029076;28;20170;-75
2022/07/30 10:50:48;;;;;;;3.00;0.90;;;;;;;;;;5029367;28;20100;-74
2022/07/30 10:53:41;;;;;;;1.75;1.05;;;;;;;;;;5028929;28;20029;-74
2022/07/30 10:56:12;;;;;;;2.13;1.00;;;;;;;;;;5028779;28;20028;-75
2022/07/30 10:58:57;;;;;;;4.70;1.30;;;;;;;;;;5028913;28;20370;-75
2022/07/30 11:01:23;;;;;;;2.10;1.20;;;;;;;;;;5029020;28;20036;-75
2022/07/30 11:04:20;;;;;;;2.03;1.08;;;;;;;;;;5028860;28;20037;-77
2022/07/30 11:06:46;;;;;;;3.17;1.17;;;;;;;;;;5028575;28;20025;-78
2022/07/30 11:09:33;;;;;;;3.95;0.98;;;;;;;;;;5028736;28;20025;-77
2022/07/30 11:11:58;;;;;;;2.20;1.17;;;;;;;;;;5028625;28;20527;-78
2022/07/30 11:14:46;;;;;;;1.85;1.00;;;;;;;;;;5028511;28;20033;-79
2022/07/30 11:17:18;;;;;;;2.70;1.10;;;;;;;;;;5028113;28;20081;-78
2022/07/30 11:20:08;;;;;;;2.92;1.10;;;;;;;;;;5028726;28;20025;-78
2022/07/30 11:22:39;;;;;;;2.70;1.08;;;;;;;;;;5027229;28;20026;-77
2022/07/30 11:25:09;;;;;;;5.47;1.10;;;;;;;;;;5028793;28;20034;-76
2022/07/30 11:27:47;;;;;;;2.80;1.10;;;;;;;;;;5028432;28;20112;-77
2022/07/30 11:30:15;;;;;;;3.45;1.02;;;;;;;;;;5028503;28;20071;-77
2022/07/30 11:32:49;;;;;;;2.83;1.27;;;;;;;;;;5028298;28;20124;-76
2022/07/30 11:35:18;;;;;;;1.83;1.02;;;;;;;;;;5027157;28;20033;-76
2022/07/30 11:38:19;;;;;;;2.00;1.02;;;;;;;;;;5027936;28;20457;-76
2022/07/30 11:40:47;;;;;;;2.00;1.10;;;;;;;;;;5031395;28;20041;-77
2022/07/30 11:43:24;;;;;;;4.82;1.05;;;;;;;;;;5028312;28;20033;-77
2022/07/30 11:46:05;;;;;;;3.80;1.15;;;;;;;;;;5028117;28;20033;-76
2022/07/30 11:48:31;;;;;;;1.77;1.10;;;;;;;;;;5028249;28;20030;-76
2022/07/30 11:50:56;;;;;;;2.67;1.27;;;;;;;;;;5028109;28;20028;-77
2022/07/30 11:53:22;;;;;;;2.35;1.30;;;;;;;;;;5028042;28;20041;-77
2022/07/30 11:55:53;;;;;;;1.83;1.10;;;;;;;;;;5028221;28;20040;-77
2022/07/30 11:58:23;;;;;;;2.25;1.10;;;;;;;;;;5028040;28;20510;-78
2022/07/30 12:00:49;;;;;;;2.42;1.20;;;;;;;;;;5026233;28;20030;-78
2022/07/30 12:03:18;;;;;;;2.08;1.20;;;;;;;;;;5027830;28;20060;-77
2022/07/30 12:05:44;;;;;;;2.90;1.20;;;;;;;;;;5027963;28;20026;-77
2022/07/30 12:08:11;;;;;;;3.28;1.20;;;;;;;;;;5027975;28;20105;-76
2022/07/30 12:10:38;;;;;;;2.95;1.10;;;;;;;;;;5027770;28;20037;-76
2022/07/30 12:13:11;;;;;;;1.25;1.00;;;;;;;;;;5027750;28;20036;-75
2022/07/30 12:15:39;;;;;;;2.10;1.10;;;;;;;;;;5027855;28;20029;-76
2022/07/30 12:18:05;;;;;;;4.63;1.20;;;;;;;;;;5027575;28;20040;-76
2022/07/30 12:20:30;;;;;;;3.20;1.05;;;;;;;;;;5027985;28;20105;-77
2022/07/30 12:22:57;;;;;;;1.85;1.20;;;;;;;;;;5027318;28;20085;-76
2022/07/30 12:25:22;;;;;;;3.08;1.20;;;;;;;;;;5027658;28;20548;-76
2022/07/30 12:27:48;;;;;;;2.80;1.20;;;;;;;;;;5027411;28;20109;-75
2022/07/30 12:30:16;;;;;;;1.85;1.10;;;;;;;;;;5027714;28;20393;-76
2022/07/30 12:32:45;;;;;;;4.18;1.23;;;;;;;;;;5027602;28;20064;-75
2022/07/30 12:35:11;;;;;;;1.90;1.30;;;;;;;;;;5026347;28;20113;-77
2022/07/30 12:37:37;;;;;;;2.25;1.17;;;;;;;;;;5027163;28;20104;-77
2022/07/30 12:40:10;;;;;;;2.33;1.00;;;;;;;;;;5027419;28;20029;-77
2022/07/30 12:42:37;;;;;;;1.80;1.13;;;;;;;;;;5026061;28;20048;-76
2022/07/30 12:45:04;;;;;;;1.35;1.08;;;;;;;;;;5027298;28;20458;-77
2022/07/30 12:47:30;;;;;;;1.45;1.00;;;;;;;;;;5027277;28;20029;-76
2022/07/30 12:50:00;;;;;;;3.17;1.15;;;;;;;;;;5027368;28;20500;-77
2022/07/30 12:52:29;;;;;;;2.38;1.17;;;;;;;;;;5027273;28;20064;-77
2022/07/30 12:54:56;;;;;;;1.38;1.10;;;;;;;;;;5027444;28;20034;-76
2022/07/30 12:57:21;;;;;;;2.28;1.20;;;;;;;;;;5026970;28;20025;-75
2022/07/30 13:00:01;;;;;;;1.85;1.13;;;;;;;;;;5027127;28;20024;-76
2022/07/30 13:02:32;;;;;;;3.88;1.40;;;;;;;;;;5026967;28;20107;-75
2022/07/30 13:04:57;;;;;;;4.63;1.30;;;;;;;;;;5027050;28;20362;-75
2022/07/30 13:07:22;;;;;;;2.10;1.20;;;;;;;;;;5025642;28;20044;-75
2022/07/30 13:10:05;;;;;;;2.80;1.20;;;;;;;;;;5027024;28;20079;-76
2022/07/30 13:12:31;;;;;;;2.85;1.23;;;;;;;;;;5030684;28;20142;-76
2022/07/30 13:14:56;;;;;;;2.63;1.30;;;;;;;;;;5030498;28;20508;-77
2022/07/30 13:17:22;;;;;;;3.08;1.25;;;;;;;;;;5030139;28;20055;-76
2022/07/30 13:19:47;;;;;;;2.05;1.17;;;;;;;;;;5030223;28;20070;-75
2022/07/30 13:22:12;;;;;;;2.85;1.10;;;;;;;;;;5030348;28;20033;-77
2022/07/30 13:24:38;;;;;;;1.70;1.20;;;;;;;;;;5030531;28;20033;-74
2022/07/30 13:27:03;;;;;;;2.40;1.20;;;;;;;;;;5030245;28;20521;-76
2022/07/30 13:29:29;;;;;;;2.03;1.27;;;;;;;;;;5030491;28;20025;-75
2022/07/30 13:31:54;;;;;;;2.47;1.08;;;;;;;;;;5030174;28;20037;-75
2022/07/30 13:34:19;;;;;;;2.78;1.35;;;;;;;;;;5030173;28;20037;-76
2022/07/30 13:36:45;;;;;;;1.30;1.02;;;;;;;;;;5030090;28;20025;-76
2022/07/30 13:39:11;;;;;;;3.50;1.20;;;;;;;;;;5029970;28;20412;-75
2022/07/30 13:41:37;;;;;;;3.42;1.13;;;;;;;;;;5030274;28;20026;-77
2022/07/30 13:44:03;;;;;;;3.58;1.23;;;;;;;;;;5030235;28;20022;-76
2022/07/30 13:46:28;;;;;;;3.25;1.30;;;;;;;;;;5030187;28;20036;-76
2022/07/30 13:48:54;;;;;;;3.80;1.33;;;;;;;;;;5029871;28;20022;-76
2022/07/30 13:51:19;;;;;;;4.97;1.25;;;;;;;;;;5028455;28;20057;-76
2022/07/30 13:53:45;;;;;;;3.03;1.20;;;;;;;;;;5029946;28;20105;-75
2022/07/30 13:56:10;;;;;;;3.35;1.20;;;;;;;;;;5029922;28;20485;-74
2022/07/30 13:58:36;;;;;;;2.53;1.20;;;;;;;;;;5029885;28;20017;-74
2022/07/30 14:01:01;;;;;;;1.63;1.05;;;;;;;;;;5029989;28;20049;-74
2022/07/30 14:03:26;;;;;;;1.85;1.10;;;;;;;;;;5029865;28;20041;-75
2022/07/30 14:05:52;;;;;;;2.70;1.17;;;;;;;;;;5029699;28;20026;-74
2022/07/30 14:08:17;;;;;;;3.90;1.10;;;;;;;;;;5029629;28;20096;-75
2022/07/30 14:10:43;;;;;;;2.08;1.10;;;;;;;;;;5029622;28;20018;-76
2022/07/30 14:13:09;;;;;;;2.42;1.13;;;;;;;;;;5028223;28;20025;-75
2022/07/30 14:15:35;;;;;;;1.95;1.10;;;;;;;;;;5029726;28;20034;-75
2022/07/30 14:18:01;;;;;;;3.60;1.30;;;;;;;;;;5029350;28;20034;-75
2022/07/30 14:20:27;;;;;;;3.80;1.15;;;;;;;;;;5029740;28;20033;-75
2022/07/30 14:22:52;;;;;;;3.78;1.30;;;;;;;;;;5028699;28;20422;-74
2022/07/30 14:25:18;;;;;;;2.67;1.17;;;;;;;;;;5029425;28;20029;-75
2022/07/30 14:27:44;;;;;;;3.55;1.05;;;;;;;;;;5029161;28;20523;-75
2022/07/30 14:30:10;;;;;;;1.38;1.10;;;;;;;;;;5029288;28;20037;-74
2022/07/30 14:32:37;;;;;;;4.13;1.33;;;;;;;;;;5029539;28;20124;-75
2022/07/30 14:35:04;;;;;;;3.05;1.13;;;;;;;;;;5029659;28;20456;-74
2022/07/30 14:37:30;;;;;;;3.05;1.20;;;;;;;;;;5029320;28;20032;-76
2022/07/30 14:39:55;;;;;;;2.47;1.20;;;;;;;;;;5029609;28;20025;-74
2022/07/30 14:42:21;;;;;;;1.50;1.10;;;;;;;;;;5029301;28;20517;-75
2022/07/30 14:44:47;;;;;;;1.92;1.08;;;;;;;;;;5028889;28;20470;-76
2022/07/30 14:47:12;;;;;;;3.40;1.05;;;;;;;;;;5027810;28;20067;-76
2022/07/30 14:49:38;;;;;;;2.25;1.15;;;;;;;;;;5029053;28;20449;-75